Aviation Digital Data Service (ADDS)

Output produced by METARs form (2205 UTC 02 October 2022)
found at http://aviationweather.gov/metar/data/
 
METAR text: KTAD 022154Z AUTO 23013KT 9SM -RA BKN070 OVC085 15/09 A3027 RMK AO2 RAB04 SLP196 P0000 T01500089 $
Conditions at: KTAD (TRINIDAD/ANIMAS , CO, US) observed 2154 UTC 02 October 2022
Temperature: 15.0°C (59°F)
Dewpoint: 8.9°C (48°F) [RH = 67%]
Pressure (altimeter): 30.27 inches Hg (1025.1 mb)
[Sea-level pressure: 1019.6 mb]
Winds: from the SW (230 degrees) at 15 MPH (13 knots; 6.7 m/s)
Visibility: 9 miles (14 km)
Ceiling: 7000 feet AGL
Clouds: broken clouds at 7000 feet AGL
overcast cloud deck at 8500 feet AGL
Weather: -RA  (light rain)
SOME DATA ABOVE MAY BE INACCURATE!!!
"$" is an indication the sensor requires maintenance